Terminal Aerodrome Forecast
Issued by NWS Tampa Bay Area, FL

Home | Current Version | Previous Version | Text Only | Print | Product List | Glossary On
Versions: 1 2 3 4 5 6 7 8 9 10 11 12 13 14 15 16 17 18 19 20 21 22 23 24 25 26
481
FTUS42 KTBW 262023 AAA
TAFTPA
TAF AMD
KTPA 262023Z 2620/2718 06010KT P6SM VCTS SCT035CB BKN050
      TEMPO 2620/2624 07015G25KT 4SM SHRA BKN030
     FM270000 06006KT P6SM SCT050 SCT250
     FM271500 08006KT P6SM SCT030 BKN150=

USA.gov is the U.S. government's official web portal to all federal, state and local government web resources and services.